Detalii statie Girov TCE 3 BRAZI [000011A2]

Toti senzorii

Date Temperatura solului [C]Precipitatii [mm]Voltaj baterie [mV]Leaf Wetness [Min]HC Air temperature [C]HC Relative humidity [%]Punctul de roua [C]
medieminmaxsumaultimatimpmedieminmaxmediemediemin
2019-02-21 00:00:00 0 6532 0 0.19 -0.23 0.73 100 0.2 -0.1
2019-02-21 01:00:00 0 6532 0 -0.72 -1.41 0.05 100 -0.6 -1.3
2019-02-21 02:00:00 0 6512 0 -0.4 -0.86 0.35 100 -0.3 -0.7
2019-02-21 03:00:00 0 6512 0 0.26 -0.01 0.58 100 0.2 0
2019-02-21 04:00:00 0 6502 0 0.34 0.27 0.41 100 0.2 0.2
2019-02-21 05:00:00 0 6522 0 1.85 0.33 3.07 100 1.8 0.3
2019-02-21 06:00:00 0 6512 0 3.18 2.97 3.74 100 3.1 2.9
2019-02-21 07:00:00 0 6522 0 3.66 3.11 4.24 100 3.6 3.1
2019-02-21 08:00:00 0 6532 0 3.41 2.92 3.9 100 3.3 2.9
2019-02-21 09:00:00 0 6660 0 4.06 3.17 4.98 100 4 3.1
2019-02-21 10:00:00 0 6854 0 4.94 4.41 5.42 100 4.9 4.4
2019-02-21 11:00:00 0 6992 0 6.11 5.62 6.49 100 6 5.6
2019-02-21 12:00:00 0 7000 0 6.41 6.14 6.51 100 6.3 6.1
2019-02-21 13:00:00 0 7000 0 6.68 6.45 7.27 100 6.6 6.4
2019-02-21 14:00:00 0 7000 0 7.46 6.8 8.51 100 7.4 6.8
2019-02-21 15:00:00 0 7000 0 7.89 7.41 8.51 100 7.8 7.4
2019-02-21 16:00:00 0 7010 0 8.21 7.98 8.52 91.66 0
2019-02-21 17:00:00 0 7000 0 7.2 5.98 8.75 66.66 4.4 0
2019-02-21 18:00:00 0 6844 0 5.9 5.16 6.52 100 5.8 5.1
2019-02-21 19:00:00 0 6708 0 4.93 4.35 5.41 100 4.9 4.3
2019-02-21 20:00:00 0 6640 0 4.1 3.46 4.96 100 4 3.4
2019-02-21 21:00:00 0 6600 0 3.59 2.68 4.82 100 3.5 2.6
2019-02-21 22:00:00 0 6582 0 2.63 1.97 3.29 100 2.5 1.9
2019-02-21 23:00:00 0 6572 0 3.31 2.49 4.51 100 3.2 2.4
2019-02-22 00:00:00 0 6562 0 4.57 4.28 4.95 100 4.5 4.2
2019-02-22 01:00:00 0 6542 0 4.96 4.67 5.3 100 4.9 4.6
2019-02-22 02:00:00 0 6542 0 4.95 4.6 5.23 100 4.9 4.6
2019-02-22 03:00:00 0 6532 0 4.08 3.53 4.56 100 4 3.5
2019-02-22 04:00:00 0.2 6532 0 2.99 2.62 3.4 100 2.9 2.6
2019-02-22 05:00:00 0 6522 0 2.73 2.5 2.95 100 2.7 2.5
2019-02-22 06:00:00 0.2 6522 0 2.59 2.26 2.88 100 2.5 2.2
2019-02-22 07:00:00 0 6522 0 2.38 2.26 2.61 100 2.3 2.2
2019-02-22 08:00:00 0 6522 0 2.73 2.55 2.88 100 2.6 2.5
2019-02-22 09:00:00 0.2 6572 0 2.66 2.61 2.75 100 2.6 2.6
2019-02-22 10:00:00 0 6756 0 3.09 2.86 3.45 100 3 2.8
2019-02-22 11:00:00 0.4 6952 0 3.85 3.25 4.34 100 3.8 3.2
2019-02-22 12:00:00 0 6816 0 -0.15 -1.78 3.06 100 0 -1.6
2019-02-22 13:00:00 0 7020 0 -1.78 -2.01 -1.59 100 -1.6 -1.9
2019-02-22 14:00:00 0 7010 0 -2.44 -2.89 -1.7 100 -2.3 -2.7
2019-02-22 15:00:00 0 7000 0 -3.19 -3.49 -2.75 100 -3 -3.3
2019-02-22 16:00:00 0 6982 0 -3.56 -3.83 -3.4 100 -3.4 -3.7
2019-02-22 17:00:00 0 6932 0 -3.73 -3.9 -3.63 100 -3.5 -3.8
2019-02-22 18:00:00 0 6786 0 -4.27 -4.56 -3.82 100 -4.1 -4.4
2019-02-22 19:00:00 0 6688 0 -4.93 -5.11 -4.72 100 -4.8 -5
2019-02-22 20:00:00 0 6620 0 -5.2 -5.24 -5.17 100 -5 -5.1
2019-02-22 21:00:00 0 6582 0 -5.35 -5.64 -5.17 100 -5.2 -5.5
2019-02-22 22:00:00 0 6542 0 -5.79 -5.93 -5.62 100 -5.6 -5.8
2019-02-22 23:00:00 0 6532 0 -5.9 -6.1 -5.81 100 -5.7 -6